Aviation Digital Data Service (ADDS)

Output produced by METARs form (1813 UTC 19 August 2019)
found at http://www.aviationweather.gov/metar/data/
 
Forecast for: AGGC (CHOISEUL BAY , SB)
Text: TAF AGGC 191720Z 1918/2018 14012KT 9999 -SHRA SCT017 BKN100
Forecast period: 1800 UTC 19 August 2019 to 1800 UTC 20 August 2019
Forecast type: FROM: standard forecast or significant change
Winds: from the SE (140 degrees) at 14 MPH (12 knots; 6.2 m/s)
Visibility: 6 or more miles 10+ km)
Ceiling: 10000 feet AGL
Clouds: scattered clouds at 1700 feet AGL
broken clouds at 10000 feet AGL
Weather: -SHRA  (light rain showers)
Text: PROB40 INTER 1918/2005 5000 TSSH BKN016 FEW017CB Q 1007 1009 1009 1007
Forecast period: 1800 UTC 19 August 2019 to 0500 UTC 20 August 2019
Forecast type: TEMPORARY: The following changes expected for less than half the time period
Visibility: 3 miles (5 km)
Ceiling: 1600 feet AGL
Clouds: broken clouds at 1600 feet AGL
few clouds at 1700 feet AGL
Weather: SH TS  (showers, thunderstorm)